Time;durP1;ratioP1;P1;durP2;ratioP2;P2;SDS_P1;SDS_P2;PMS_P1;PMS_P2;Temp;Humidity;BMP_temperature;BMP_pressure;BME280_temperature;BME280_humidity;BME280_pressure;Samples;Min_cycle;Max_cycle;Signal;HPM_P1;HPM_P2
2023/03/11 00:02:13;;;;;;;1.87;0.50;;;1.50;99.90;;;;;;4990682;28;20629;-67
2023/03/11 00:04:38;;;;;;;1.67;0.60;;;1.40;99.90;;;;;;4989304;28;20192;-66
2023/03/11 00:07:08;;;;;;;1.37;0.50;;;1.40;99.90;;;;;;4993320;28;20182;-66
2023/03/11 00:09:34;;;;;;;1.30;0.57;;;1.40;99.90;;;;;;4991241;28;20176;-66
2023/03/11 00:12:00;;;;;;;3.10;0.80;;;1.40;99.90;;;;;;4989881;28;20478;-66
2023/03/11 00:14:26;;;;;;;1.10;0.50;;;1.40;99.90;;;;;;4990907;28;20966;-66
2023/03/11 00:16:52;;;;;;;1.87;0.87;;;1.40;99.90;;;;;;4990635;28;20423;-66
2023/03/11 00:19:17;;;;;;;1.67;0.73;;;1.40;99.90;;;;;;4990289;28;20302;-66
2023/03/11 00:21:43;;;;;;;1.10;0.50;;;1.40;99.90;;;;;;4990201;28;20678;-66
2023/03/11 00:24:09;;;;;;;1.10;0.50;;;1.40;99.90;;;;;;4994522;28;20258;-67
2023/03/11 00:26:34;;;;;;;1.10;0.50;;;1.40;99.90;;;;;;4990436;28;20180;-67
2023/03/11 00:29:00;;;;;;;1.50;0.60;;;1.40;99.90;;;;;;4990368;28;20294;-67
2023/03/11 00:31:26;;;;;;;2.77;1.00;;;1.40;99.90;;;;;;4990340;28;20287;-68
2023/03/11 00:33:52;;;;;;;1.10;0.50;;;1.40;99.90;;;;;;4996459;28;20188;-66
2023/03/11 00:36:36;;;;;;;1.10;0.60;;;1.40;99.90;;;;;;4994073;28;20219;-66
2023/03/11 00:39:07;;;;;;;1.43;0.80;;;1.40;99.90;;;;;;4994747;28;20583;-66
2023/03/11 00:41:33;;;;;;;1.73;0.77;;;1.40;99.90;;;;;;4996558;28;20446;-66
2023/03/11 00:43:59;;;;;;;1.33;0.50;;;1.50;99.90;;;;;;4993803;28;20482;-66
2023/03/11 00:46:25;;;;;;;1.53;0.73;;;1.50;99.90;;;;;;4993972;28;20431;-66
2023/03/11 00:48:51;;;;;;;1.50;0.70;;;1.50;99.90;;;;;;4993950;28;20903;-66
2023/03/11 00:51:17;;;;;;;1.30;0.50;;;1.50;99.90;;;;;;4998187;28;20951;-68
2023/03/11 00:53:43;;;;;;;1.33;0.60;;;1.60;99.90;;;;;;4997919;28;20191;-67
2023/03/11 00:56:11;;;;;;;2.00;1.10;;;1.60;99.90;;;;;;4994111;28;20497;-68
2023/03/11 00:58:37;;;;;;;2.10;1.00;;;1.60;99.90;;;;;;5007144;28;20426;-68
2023/03/11 01:01:11;;;;;;;1.60;1.03;;;1.60;99.90;;;;;;5002852;28;20414;-67
2023/03/11 01:03:37;;;;;;;1.20;0.50;;;1.60;99.90;;;;;;4996906;28;20700;-66
2023/03/11 01:06:04;;;;;;;1.50;0.73;;;1.60;99.90;;;;;;4993991;28;20450;-67
2023/03/11 01:08:30;;;;;;;4.30;1.10;;;1.60;99.90;;;;;;5005572;28;20509;-67
2023/03/11 01:10:56;;;;;;;1.73;0.80;;;1.60;99.90;;;;;;4993796;28;20430;-68
2023/03/11 01:13:22;;;;;;;1.13;0.50;;;1.50;99.90;;;;;;4989666;28;20453;-66
2023/03/11 01:15:48;;;;;;;8.50;0.80;;;1.50;99.90;;;;;;4992504;28;20714;-67
2023/03/11 01:18:14;;;;;;;1.63;0.80;;;1.50;99.90;;;;;;4992785;28;20443;-68
2023/03/11 01:20:40;;;;;;;2.37;1.00;;;1.60;99.90;;;;;;4993654;28;20230;-66
2023/03/11 01:23:07;;;;;;;1.57;0.73;;;1.60;99.90;;;;;;4993029;28;20518;-66
2023/03/11 01:25:33;;;;;;;1.20;0.70;;;1.50;99.90;;;;;;4976211;28;20435;-67
2023/03/11 01:27:59;;;;;;;2.30;0.90;;;1.50;99.90;;;;;;4992658;28;20818;-67
2023/03/11 01:30:25;;;;;;;1.97;0.67;;;1.50;99.90;;;;;;4976314;28;20430;-67
2023/03/11 01:32:52;;;;;;;1.30;0.80;;;1.50;99.90;;;;;;4992372;28;20558;-67
2023/03/11 01:35:19;;;;;;;3.40;1.00;;;1.40;99.90;;;;;;4993927;28;20431;-67
2023/03/11 01:37:45;;;;;;;1.93;0.67;;;1.40;99.90;;;;;;4993810;28;20430;-66
2023/03/11 01:40:37;;;;;;;1.50;0.83;;;1.40;99.90;;;;;;4993596;28;20780;-67
2023/03/11 01:43:05;;;;;;;1.20;0.60;;;1.40;99.90;;;;;;4991045;28;20735;-67
2023/03/11 01:46:01;;;;;;;2.07;0.80;;;1.40;99.90;;;;;;4993353;28;20509;-67
2023/03/11 01:48:27;;;;;;;1.17;0.50;;;1.40;99.90;;;;;;4992793;28;20435;-67
2023/03/11 01:50:55;;;;;;;2.00;0.70;;;1.30;99.90;;;;;;4992953;28;20439;-67
2023/03/11 01:53:22;;;;;;;4.93;0.60;;;1.30;99.90;;;;;;4992539;28;21204;-67
2023/03/11 01:55:48;;;;;;;1.37;0.50;;;1.30;99.90;;;;;;4996935;28;20449;-67
2023/03/11 01:58:18;;;;;;;7.13;1.07;;;1.30;99.90;;;;;;4992267;28;20454;-67
2023/03/11 02:00:44;;;;;;;1.77;0.90;;;1.30;99.90;;;;;;4992504;28;20506;-67
2023/03/11 02:03:16;;;;;;;8.33;1.10;;;1.30;99.90;;;;;;5004578;28;20472;-67
2023/03/11 02:05:42;;;;;;;6.30;1.03;;;1.30;99.90;;;;;;4979584;28;20470;-67
2023/03/11 02:08:08;;;;;;;1.63;0.80;;;1.20;99.90;;;;;;4996421;28;20459;-67
2023/03/11 02:10:37;;;;;;;1.60;0.83;;;1.20;99.90;;;;;;4992723;28;20431;-67
2023/03/11 02:13:03;;;;;;;2.87;0.80;;;1.20;99.90;;;;;;4992168;28;20509;-67
2023/03/11 02:15:29;;;;;;;2.37;0.80;;;1.10;99.90;;;;;;5005777;28;20450;-67
2023/03/11 02:17:55;;;;;;;1.27;0.60;;;1.10;99.90;;;;;;4992453;28;20882;-67
2023/03/11 02:20:56;;;;;;;1.83;0.63;;;1.10;99.90;;;;;;5005414;28;20506;-67
2023/03/11 02:23:28;;;;;;;5.53;0.80;;;1.10;99.90;;;;;;4892354;29;20265;-67
2023/03/11 02:26:00;;;;;;;1.90;0.70;;;1.10;99.90;;;;;;4987126;28;20441;-68
2023/03/11 02:28:27;;;;;;;1.37;0.67;;;1.00;99.90;;;;;;4992489;28;20946;-67
2023/03/11 02:30:55;;;;;;;1.20;0.60;;;1.00;99.90;;;;;;4992479;28;20434;-67
2023/03/11 02:33:25;;;;;;;1.80;0.73;;;1.00;99.90;;;;;;4997721;28;20454;-67
2023/03/11 02:35:51;;;;;;;1.30;0.57;;;1.00;99.90;;;;;;4998705;28;20474;-67
2023/03/11 02:38:17;;;;;;;2.20;0.83;;;1.10;99.90;;;;;;4992343;28;20419;-67
2023/03/11 02:40:47;;;;;;;11.90;1.10;;;1.10;99.90;;;;;;4992160;28;20211;-67
2023/03/11 02:43:16;;;;;;;1.37;0.67;;;1.00;99.90;;;;;;4998003;28;20419;-67
2023/03/11 02:45:45;;;;;;;1.63;0.80;;;1.00;99.90;;;;;;4997776;28;20503;-67
2023/03/11 02:48:12;;;;;;;1.73;0.80;;;0.90;99.90;;;;;;4999266;28;20418;-67
2023/03/11 02:50:39;;;;;;;6.70;0.73;;;0.80;99.90;;;;;;4997589;28;20423;-67
2023/03/11 02:53:06;;;;;;;6.53;1.23;;;0.80;99.90;;;;;;4990848;28;20550;-67
2023/03/11 02:55:32;;;;;;;5.00;1.00;;;0.70;99.90;;;;;;4991351;28;20419;-67
2023/03/11 02:57:58;;;;;;;1.40;0.80;;;0.70;99.90;;;;;;5000841;28;20437;-68
2023/03/11 03:00:23;;;;;;;1.93;1.00;;;0.60;99.90;;;;;;4977873;28;20423;-67
2023/03/11 03:02:52;;;;;;;1.90;0.70;;;0.60;99.90;;;;;;5000753;28;20229;-67
2023/03/11 03:05:19;;;;;;;1.40;0.73;;;0.60;99.90;;;;;;4998104;28;20186;-67
2023/03/11 03:07:49;;;;;;;1.50;0.70;;;0.50;99.90;;;;;;4985003;28;20463;-67
2023/03/11 03:10:19;;;;;;;1.50;0.87;;;0.50;99.90;;;;;;4991233;28;20423;-67
2023/03/11 03:12:45;;;;;;;2.43;1.00;;;0.40;99.90;;;;;;4990652;28;20465;-68
2023/03/11 03:15:12;;;;;;;1.47;0.70;;;0.40;99.90;;;;;;4991913;28;20823;-67
2023/03/11 03:17:38;;;;;;;2.47;0.90;;;0.30;99.90;;;;;;4991621;28;20190;-67
2023/03/11 03:20:10;;;;;;;1.53;0.60;;;0.30;99.40;;;;;;4991164;28;20851;-67
2023/03/11 03:22:36;;;;;;;1.37;0.60;;;0.20;99.30;;;;;;4990867;28;20503;-68
2023/03/11 03:25:01;;;;;;;1.10;0.57;;;0.20;99.50;;;;;;4991023;28;20521;-67
2023/03/11 03:27:27;;;;;;;1.40;0.70;;;0.20;99.50;;;;;;4990798;28;20837;-67
2023/03/11 03:29:53;;;;;;;1.00;0.40;;;0.10;99.50;;;;;;4990824;28;20191;-67
2023/03/11 03:32:18;;;;;;;1.57;0.47;;;0.10;99.30;;;;;;4992095;28;20225;-66
2023/03/11 03:34:44;;;;;;;2.07;0.77;;;0.00;99.60;;;;;;4990729;28;20184;-67
2023/03/11 03:37:09;;;;;;;1.70;0.60;;;-0.10;99.80;;;;;;4991302;28;20659;-67
2023/03/11 03:39:35;;;;;;;2.60;0.73;;;-0.10;99.90;;;;;;4990804;28;20338;-67
2023/03/11 03:42:00;;;;;;;2.07;0.90;;;-0.10;99.90;;;;;;4990417;28;20293;-67
2023/03/11 03:44:26;;;;;;;1.67;0.60;;;-0.10;99.40;;;;;;4990906;28;20290;-67
2023/03/11 03:46:52;;;;;;;1.97;0.80;;;-0.20;99.60;;;;;;4992383;28;20600;-67
2023/03/11 03:49:17;;;;;;;2.90;1.23;;;-0.20;99.90;;;;;;4990788;28;20509;-67
2023/03/11 03:51:43;;;;;;;13.93;1.27;;;-0.20;99.70;;;;;;4990555;28;20246;-67
2023/03/11 03:54:09;;;;;;;1.77;1.00;;;-0.30;99.60;;;;;;4990865;28;20226;-67
2023/03/11 03:56:34;;;;;;;2.10;1.07;;;-0.30;99.90;;;;;;4991381;28;20179;-67
2023/03/11 03:59:00;;;;;;;2.60;0.80;;;-0.30;99.90;;;;;;4990914;28;20640;-67
2023/03/11 04:01:25;;;;;;;2.53;0.60;;;-0.30;99.90;;;;;;4991476;28;20230;-67
2023/03/11 04:03:51;;;;;;;1.97;0.73;;;-0.40;99.90;;;;;;4990662;28;20543;-67
2023/03/11 04:06:20;;;;;;;1.00;0.40;;;-0.40;99.90;;;;;;4991553;28;20668;-68
2023/03/11 04:08:46;;;;;;;1.10;0.50;;;-0.50;99.90;;;;;;4996754;28;20225;-65
2023/03/11 04:11:11;;;;;;;1.40;0.90;;;-0.50;99.90;;;;;;5008136;28;20434;-65
2023/03/11 04:13:37;;;;;;;1.20;0.60;;;-0.60;99.90;;;;;;4995060;28;20192;-66
2023/03/11 04:16:05;;;;;;;1.70;0.60;;;-0.60;99.90;;;;;;4994765;28;20195;-67
2023/03/11 04:18:30;;;;;;;1.30;0.63;;;-0.70;99.90;;;;;;4994632;28;20192;-67
2023/03/11 04:20:56;;;;;;;2.17;0.60;;;-0.70;99.90;;;;;;4995124;28;20422;-66
2023/03/11 04:23:22;;;;;;;2.37;0.73;;;-0.70;99.90;;;;;;5007134;28;20254;-66
2023/03/11 04:25:47;;;;;;;2.80;0.90;;;-0.70;99.90;;;;;;4994825;28;20192;-66
2023/03/11 04:28:13;;;;;;;1.77;0.77;;;-0.80;99.90;;;;;;4994200;28;20202;-66
2023/03/11 04:30:39;;;;;;;1.60;0.50;;;-0.80;99.90;;;;;;4995451;28;20186;-66
2023/03/11 04:33:04;;;;;;;1.23;0.60;;;-0.80;99.90;;;;;;4994538;28;20212;-66
2023/03/11 04:35:30;;;;;;;3.27;0.70;;;-0.80;99.90;;;;;;4995202;28;20194;-66
2023/03/11 04:37:55;;;;;;;1.50;0.70;;;-0.80;99.90;;;;;;5008893;28;21077;-66
2023/03/11 04:40:21;;;;;;;2.03;0.80;;;-0.90;99.90;;;;;;4995398;28;20200;-66
2023/03/11 04:42:47;;;;;;;8.10;1.00;;;-0.90;99.90;;;;;;4998449;28;20187;-66
2023/03/11 04:45:13;;;;;;;1.83;0.70;;;-1.00;99.90;;;;;;5004999;28;20211;-66
2023/03/11 04:47:38;;;;;;;1.67;0.73;;;-1.00;99.90;;;;;;4996586;28;20188;-65
2023/03/11 04:50:04;;;;;;;2.03;0.70;;;-1.00;99.90;;;;;;4998647;28;20434;-66
2023/03/11 04:52:30;;;;;;;2.17;1.00;;;-1.00;99.90;;;;;;4999944;28;20278;-65
2023/03/11 04:54:55;;;;;;;1.43;0.60;;;-1.00;99.90;;;;;;5002592;28;20180;-66
2023/03/11 04:57:21;;;;;;;1.10;0.50;;;-1.10;99.90;;;;;;5001321;28;20215;-65
2023/03/11 04:59:47;;;;;;;8.40;1.00;;;-1.10;99.90;;;;;;5001498;28;20266;-65
2023/03/11 05:02:12;;;;;;;7.83;1.00;;;-1.10;99.90;;;;;;5000186;28;20188;-66
2023/03/11 05:04:38;;;;;;;1.30;0.80;;;-1.10;99.90;;;;;;4999173;28;20205;-66
2023/03/11 05:07:03;;;;;;;1.77;0.80;;;-1.00;99.90;;;;;;4998055;28;20190;-66
2023/03/11 05:09:29;;;;;;;1.60;0.90;;;-1.00;99.90;;;;;;4996237;28;20707;-66
2023/03/11 05:11:55;;;;;;;2.07;0.83;;;-1.00;99.90;;;;;;4994548;28;20207;-66
2023/03/11 05:14:20;;;;;;;1.83;0.80;;;-1.00;99.90;;;;;;5004541;28;20195;-67
2023/03/11 05:16:46;;;;;;;13.30;4.60;;;-1.00;99.90;;;;;;5004194;28;20194;-66
2023/03/11 05:19:30;;;;;;;8.10;1.70;;;-1.10;99.90;;;;;;5012258;28;20192;-66
2023/03/11 05:21:56;;;;;;;1.30;0.60;;;-1.00;99.90;;;;;;4992694;28;20186;-66
2023/03/11 05:24:22;;;;;;;1.30;0.63;;;-0.90;99.90;;;;;;4993548;28;20466;-67
2023/03/11 05:26:48;;;;;;;2.50;0.93;;;-0.90;99.90;;;;;;5002853;28;20565;-67
2023/03/11 05:29:13;;;;;;;1.90;1.00;;;-0.90;99.90;;;;;;4993104;28;20191;-67
2023/03/11 05:31:39;;;;;;;1.67;0.90;;;-0.90;99.90;;;;;;4993452;28;20212;-67
2023/03/11 05:34:05;;;;;;;4.07;1.53;;;-0.90;99.90;;;;;;4993156;28;20607;-67
2023/03/11 05:36:30;;;;;;;5.43;1.30;;;-0.90;99.90;;;;;;4993417;28;20188;-67
2023/03/11 05:38:56;;;;;;;2.43;0.80;;;-0.90;99.90;;;;;;4993629;28;20196;-67
2023/03/11 05:41:21;;;;;;;2.23;0.70;;;-0.90;99.90;;;;;;4993160;28;20208;-66
2023/03/11 05:43:47;;;;;;;1.30;0.60;;;-0.90;99.90;;;;;;4992964;28;20198;-67
2023/03/11 05:46:13;;;;;;;1.60;0.70;;;-1.00;99.90;;;;;;4987892;28;20192;-68
2023/03/11 05:48:38;;;;;;;1.33;0.60;;;-1.00;99.90;;;;;;4992853;28;20187;-67
2023/03/11 05:51:08;;;;;;;6.60;1.27;;;-1.00;99.90;;;;;;4993123;28;20359;-67
2023/03/11 05:53:34;;;;;;;1.60;0.80;;;-1.00;99.90;;;;;;4993445;28;20207;-67
2023/03/11 05:56:00;;;;;;;2.63;1.23;;;-1.10;99.90;;;;;;4995778;28;20450;-67
2023/03/11 05:58:27;;;;;;;1.63;0.80;;;-1.10;99.90;;;;;;4993342;28;20222;-67
2023/03/11 06:00:53;;;;;;;1.60;0.90;;;-1.10;99.90;;;;;;5005101;28;20485;-67
2023/03/11 06:03:18;;;;;;;1.40;0.60;;;-1.10;99.90;;;;;;4992454;28;20419;-67
2023/03/11 06:05:45;;;;;;;3.10;1.17;;;-1.10;99.90;;;;;;4992591;28;20270;-68
2023/03/11 06:08:11;;;;;;;3.13;0.90;;;-1.10;99.90;;;;;;4992575;28;20235;-67
2023/03/11 06:10:37;;;;;;;1.17;0.63;;;-1.10;99.90;;;;;;4993017;28;20898;-67
2023/03/11 06:13:02;;;;;;;6.40;1.37;;;-1.10;99.90;;;;;;5004358;28;20203;-67
2023/03/11 06:15:28;;;;;;;2.20;1.00;;;-1.10;99.90;;;;;;4996411;28;20617;-67
2023/03/11 06:17:54;;;;;;;4.30;1.40;;;-1.10;99.90;;;;;;4992525;28;20183;-66
2023/03/11 06:20:20;;;;;;;3.67;1.83;;;-0.90;99.90;;;;;;5005784;28;20525;-66
2023/03/11 06:22:49;;;;;;;2.90;1.80;;;-1.00;99.90;;;;;;4993073;28;20191;-66
2023/03/11 06:25:14;;;;;;;2.93;1.33;;;-1.00;99.90;;;;;;4992730;28;20248;-67
2023/03/11 06:27:40;;;;;;;2.80;1.20;;;-1.00;99.90;;;;;;4992112;28;20423;-67
2023/03/11 06:30:06;;;;;;;2.40;1.20;;;-1.00;99.90;;;;;;4991223;28;20366;-66
2023/03/11 06:32:33;;;;;;;4.50;1.10;;;-1.00;99.90;;;;;;4994136;28;20226;-66
2023/03/11 06:34:59;;;;;;;1.90;0.73;;;-0.90;99.90;;;;;;4991914;28;20477;-67
2023/03/11 06:37:25;;;;;;;3.77;1.00;;;-0.90;99.90;;;;;;4992269;28;20412;-66
2023/03/11 06:39:53;;;;;;;3.90;1.03;;;-0.90;99.90;;;;;;4991727;28;20238;-66
2023/03/11 06:42:22;;;;;;;1.77;0.77;;;-0.80;99.90;;;;;;4991073;28;20334;-66
2023/03/11 06:44:48;;;;;;;1.93;1.20;;;-0.70;99.90;;;;;;4989152;28;20432;-67
2023/03/11 06:47:14;;;;;;;1.80;1.23;;;-0.60;99.90;;;;;;4989455;28;20454;-66
2023/03/11 06:49:41;;;;;;;5.80;1.40;;;-0.60;99.90;;;;;;4991674;28;20783;-66
2023/03/11 06:52:07;;;;;;;3.83;1.37;;;-0.50;99.90;;;;;;4990779;28;20995;-66
2023/03/11 06:54:33;;;;;;;1.43;0.90;;;-0.40;99.90;;;;;;4990858;28;20423;-66
2023/03/11 06:56:59;;;;;;;2.40;1.07;;;-0.40;99.90;;;;;;4991203;28;20517;-66
2023/03/11 06:59:24;;;;;;;2.50;0.90;;;-0.30;99.90;;;;;;4991705;28;20446;-67
2023/03/11 07:01:50;;;;;;;6.43;1.07;;;-0.10;99.90;;;;;;4991629;28;20199;-66
2023/03/11 07:04:16;;;;;;;4.80;1.20;;;-0.10;99.90;;;;;;4991375;28;20184;-66
2023/03/11 07:06:42;;;;;;;6.10;1.10;;;0.00;99.90;;;;;;4990955;28;20266;-66
2023/03/11 07:09:08;;;;;;;2.53;1.27;;;0.20;99.90;;;;;;4991205;28;20188;-66
2023/03/11 07:11:34;;;;;;;2.90;1.27;;;0.30;99.90;;;;;;4990246;28;20462;-66
2023/03/11 07:13:59;;;;;;;3.10;1.23;;;0.50;99.90;;;;;;4988257;28;20482;-66
2023/03/11 07:16:28;;;;;;;8.57;1.77;;;0.60;99.90;;;;;;4987975;28;20176;-66
2023/03/11 07:18:57;;;;;;;2.20;1.10;;;0.60;99.70;;;;;;4989043;28;20180;-66
2023/03/11 07:21:24;;;;;;;1.70;0.73;;;0.70;99.80;;;;;;4989078;28;20419;-66
2023/03/11 07:23:58;;;;;;;4.03;1.33;;;0.80;99.00;;;;;;4990217;28;20469;-66
2023/03/11 07:26:24;;;;;;;3.47;1.10;;;0.80;99.30;;;;;;4986767;28;20437;-66
2023/03/11 07:28:51;;;;;;;4.00;1.33;;;0.80;99.80;;;;;;4989643;28;20445;-66
2023/03/11 07:31:19;;;;;;;1.70;0.60;;;0.80;98.90;;;;;;4990417;28;20750;-66
2023/03/11 07:33:46;;;;;;;1.93;0.90;;;0.80;99.10;;;;;;4990952;28;20964;-66
2023/03/11 07:36:14;;;;;;;2.40;1.40;;;1.00;98.90;;;;;;4987366;28;20510;-66
2023/03/11 07:38:40;;;;;;;1.63;0.70;;;1.10;99.00;;;;;;4990389;28;20419;-66
2023/03/11 07:41:06;;;;;;;6.60;2.03;;;1.20;99.40;;;;;;4989542;28;20446;-66
2023/03/11 07:43:33;;;;;;;3.07;1.27;;;1.80;98.80;;;;;;4989891;28;20427;-66
2023/03/11 07:46:11;;;;;;;3.10;1.33;;;2.50;97.00;;;;;;4989958;28;20430;-66
2023/03/11 07:48:39;;;;;;;2.60;1.00;;;3.40;95.60;;;;;;4990848;28;20427;-67
2023/03/11 07:51:10;;;;;;;2.70;0.97;;;3.80;94.10;;;;;;4989858;28;20485;-66
2023/03/11 07:53:35;;;;;;;1.40;0.70;;;4.00;93.30;;;;;;4990227;28;20435;-66
2023/03/11 07:56:02;;;;;;;3.43;0.87;;;3.90;91.80;;;;;;4989990;28;20488;-66
2023/03/11 07:58:28;;;;;;;3.37;0.90;;;4.30;92.10;;;;;;4989981;28;20198;-66
2023/03/11 08:00:55;;;;;;;3.83;0.80;;;4.50;91.00;;;;;;4990344;28;20454;-66
2023/03/11 08:03:22;;;;;;;2.60;0.80;;;4.70;91.30;;;;;;4990270;28;20430;-66
2023/03/11 08:05:48;;;;;;;1.80;0.80;;;4.90;90.70;;;;;;4990027;28;20419;-66
2023/03/11 08:08:13;;;;;;;4.47;1.13;;;5.40;89.20;;;;;;4989985;28;20434;-67
2023/03/11 08:10:39;;;;;;;1.67;0.63;;;5.80;88.20;;;;;;4990185;28;20278;-66
2023/03/11 08:13:05;;;;;;;1.60;0.60;;;6.00;87.30;;;;;;4989114;28;20978;-66
2023/03/11 08:15:30;;;;;;;1.47;0.73;;;6.10;85.10;;;;;;4990162;28;20208;-66
2023/03/11 08:17:56;;;;;;;3.00;1.17;;;6.20;84.70;;;;;;4990122;28;20226;-66
2023/03/11 08:20:22;;;;;;;3.13;0.90;;;5.90;84.10;;;;;;4990130;28;20616;-67
2023/03/11 08:22:47;;;;;;;5.67;1.00;;;5.50;85.00;;;;;;4989779;28;20196;-67
2023/03/11 08:25:13;;;;;;;2.10;0.67;;;5.70;87.30;;;;;;4990340;28;20196;-66
2023/03/11 08:27:40;;;;;;;1.67;0.53;;;5.90;83.40;;;;;;4989933;28;20192;-66
2023/03/11 08:30:07;;;;;;;3.63;1.27;;;5.90;84.80;;;;;;4990357;28;20226;-66
2023/03/11 08:32:33;;;;;;;2.27;1.23;;;5.60;83.80;;;;;;4989693;28;20477;-66
2023/03/11 08:34:58;;;;;;;2.17;0.73;;;5.80;84.60;;;;;;4990361;28;20431;-66
2023/03/11 08:37:24;;;;;;;1.77;0.70;;;5.90;82.80;;;;;;4990112;28;20425;-66
2023/03/11 08:39:50;;;;;;;2.53;0.57;;;5.80;83.40;;;;;;4990682;28;20196;-66
2023/03/11 08:42:16;;;;;;;2.43;0.87;;;5.70;84.20;;;;;;4990119;28;20192;-66
2023/03/11 08:44:42;;;;;;;4.20;0.70;;;6.20;81.60;;;;;;4988654;28;20188;-67
2023/03/11 08:47:08;;;;;;;2.77;0.80;;;6.30;81.10;;;;;;4985691;28;20489;-67
2023/03/11 08:49:34;;;;;;;1.37;0.63;;;6.50;80.70;;;;;;4990330;28;20187;-66
2023/03/11 08:52:01;;;;;;;2.27;1.37;;;6.30;80.70;;;;;;4989117;28;20212;-67
2023/03/11 08:54:27;;;;;;;1.97;0.70;;;6.90;79.80;;;;;;4994784;28;20202;-67
2023/03/11 08:56:52;;;;;;;7.80;0.90;;;6.70;79.50;;;;;;4993417;28;20811;-66
2023/03/11 08:59:18;;;;;;;5.53;1.47;;;6.70;80.50;;;;;;4991136;28;20473;-67
2023/03/11 09:01:44;;;;;;;6.60;0.83;;;6.70;82.00;;;;;;4992608;28;20180;-67
2023/03/11 09:04:10;;;;;;;3.20;0.70;;;6.90;77.60;;;;;;4992479;28;20638;-67
2023/03/11 09:06:36;;;;;;;1.30;0.63;;;6.70;77.20;;;;;;4994108;28;20237;-66
2023/03/11 09:09:02;;;;;;;3.20;0.60;;;5.80;75.50;;;;;;4996233;28;20415;-65
2023/03/11 09:11:28;;;;;;;5.33;1.17;;;5.10;79.40;;;;;;4992370;28;20246;-65
2023/03/11 09:13:53;;;;;;;2.17;0.60;;;4.50;81.40;;;;;;4991932;28;20877;-67
2023/03/11 09:16:21;;;;;;;1.30;0.60;;;4.50;84.20;;;;;;4992528;28;20204;-66
2023/03/11 09:18:47;;;;;;;1.70;0.80;;;4.90;83.20;;;;;;4991091;28;20218;-67
2023/03/11 09:21:13;;;;;;;1.30;0.60;;;5.30;79.80;;;;;;4991868;28;20454;-67
2023/03/11 09:23:39;;;;;;;1.90;0.83;;;5.60;79.80;;;;;;4992515;28;20191;-67
2023/03/11 09:26:05;;;;;;;2.60;0.77;;;5.70;79.40;;;;;;4992856;28;20667;-67
2023/03/11 09:28:31;;;;;;;1.70;0.73;;;5.40;80.10;;;;;;4991469;28;20423;-67
2023/03/11 09:30:56;;;;;;;1.90;0.70;;;5.10;80.20;;;;;;4992632;28;20223;-67
2023/03/11 09:33:23;;;;;;;1.10;0.40;;;5.10;79.70;;;;;;4992333;28;20676;-67
2023/03/11 09:35:48;;;;;;;5.93;0.70;;;4.70;80.60;;;;;;4992129;28;20260;-65
2023/03/11 09:38:14;;;;;;;1.90;0.73;;;4.80;78.90;;;;;;4992654;28;20469;-66
2023/03/11 09:40:45;;;;;;;3.67;1.00;;;4.80;78.90;;;;;;4992521;28;20199;-66
2023/03/11 09:43:19;;;;;;;1.20;0.50;;;4.70;78.40;;;;;;4991647;28;20200;-65
2023/03/11 09:45:55;;;;;;;1.40;0.70;;;4.40;76.80;;;;;;4992270;28;20443;-65
2023/03/11 09:49:08;;;;;;;1.20;0.53;;;4.20;81.10;;;;;;4992512;28;20895;-66
2023/03/11 09:51:41;;;;;;;1.27;0.60;;;4.40;78.40;;;;;;4973699;28;20983;-66
2023/03/11 09:54:11;;;;;;;1.50;0.50;;;4.60;76.90;;;;;;4992464;28;20454;-65
2023/03/11 09:56:38;;;;;;;2.37;0.70;;;5.00;79.50;;;;;;4992339;28;20415;-65
2023/03/11 09:59:08;;;;;;;1.93;0.63;;;5.40;74.90;;;;;;4991789;28;20895;-65
2023/03/11 10:01:35;;;;;;;1.67;0.60;;;5.30;74.30;;;;;;4992028;28;20431;-66
2023/03/11 10:04:22;;;;;;;1.10;0.40;;;5.10;77.70;;;;;;4992177;28;20477;-65
2023/03/11 10:06:48;;;;;;;1.10;0.47;;;5.30;76.30;;;;;;4992159;28;20430;-68
2023/03/11 10:09:42;;;;;;;2.70;0.90;;;5.10;78.30;;;;;;4992138;28;20573;-65
2023/03/11 10:12:35;;;;;;;1.50;0.60;;;4.80;78.00;;;;;;4991413;28;20873;-68
2023/03/11 10:15:10;;;;;;;4.13;1.03;;;4.50;79.80;;;;;;4992109;28;20914;-66
2023/03/11 10:18:07;;;;;;;1.20;0.47;;;4.20;79.70;;;;;;4984026;28;20767;-65
2023/03/11 10:20:52;;;;;;;1.40;0.60;;;4.10;79.80;;;;;;4992278;28;20419;-66
2023/03/11 10:23:44;;;;;;;3.90;0.77;;;3.90;80.80;;;;;;4991474;28;20434;-65
2023/03/11 10:26:15;;;;;;;2.30;0.90;;;3.80;80.80;;;;;;4987684;28;20476;-66
2023/03/11 10:28:48;;;;;;;3.27;0.73;;;3.60;81.80;;;;;;4991433;28;21005;-65
2023/03/11 10:31:28;;;;;;;1.43;0.50;;;3.60;83.60;;;;;;4991899;28;20423;-66
2023/03/11 10:34:20;;;;;;;1.20;0.60;;;4.00;83.80;;;;;;4991495;28;20423;-65
2023/03/11 10:36:52;;;;;;;1.40;0.60;;;4.30;81.90;;;;;;4991716;28;20411;-65
2023/03/11 10:39:18;;;;;;;1.10;0.50;;;4.50;81.70;;;;;;4991457;28;20454;-65
2023/03/11 10:41:58;;;;;;;1.60;0.70;;;4.80;79.20;;;;;;4991382;28;20419;-65
2023/03/11 10:44:36;;;;;;;4.93;0.70;;;4.70;80.20;;;;;;4990670;28;20419;-65
2023/03/11 10:47:03;;;;;;;3.00;0.80;;;4.80;81.10;;;;;;4989673;28;20774;-66
2023/03/11 10:49:29;;;;;;;1.20;0.50;;;4.90;82.00;;;;;;4991319;28;20510;-66
2023/03/11 10:51:56;;;;;;;1.40;0.60;;;4.90;79.60;;;;;;4990488;28;20561;-66
2023/03/11 10:54:32;;;;;;;27.87;1.13;;;4.60;79.10;;;;;;4991063;28;20462;-66
2023/03/11 10:57:00;;;;;;;1.30;0.50;;;4.50;78.80;;;;;;4990336;28;20431;-66
2023/03/11 10:59:44;;;;;;;2.37;0.80;;;4.40;79.90;;;;;;4991046;28;20431;-66
2023/03/11 11:02:27;;;;;;;1.40;0.60;;;4.40;79.10;;;;;;4990657;28;20459;-66
2023/03/11 11:05:17;;;;;;;4.23;1.00;;;4.60;81.10;;;;;;4991226;28;20446;-66
2023/03/11 11:07:47;;;;;;;1.10;0.50;;;5.20;77.40;;;;;;4994716;28;20962;-66
2023/03/11 11:10:16;;;;;;;2.90;0.57;;;5.20;77.80;;;;;;4990801;28;20458;-66
2023/03/11 11:13:15;;;;;;;1.67;0.77;;;5.00;78.30;;;;;;4989475;28;20830;-66
2023/03/11 11:16:04;;;;;;;4.03;1.10;;;4.80;78.50;;;;;;4979405;28;20481;-65
2023/03/11 11:18:35;;;;;;;3.40;0.80;;;4.80;77.70;;;;;;4990618;28;20423;-66
2023/03/11 11:21:04;;;;;;;3.50;0.90;;;5.00;76.80;;;;;;4990543;28;20731;-66
2023/03/11 11:23:41;;;;;;;5.43;1.17;;;5.40;76.50;;;;;;4990447;28;20433;-66
2023/03/11 11:26:23;;;;;;;2.03;0.60;;;5.60;74.70;;;;;;4990208;28;20445;-65
2023/03/11 11:29:05;;;;;;;1.40;0.60;;;5.30;72.50;;;;;;4989849;28;20458;-66
2023/03/11 11:31:31;;;;;;;1.63;0.70;;;4.90;74.10;;;;;;4990194;28;20920;-66
2023/03/11 11:33:56;;;;;;;1.40;0.63;;;4.60;75.10;;;;;;4990254;28;20517;-66
2023/03/11 11:36:31;;;;;;;4.40;0.60;;;4.40;77.80;;;;;;4972843;28;20187;-66
2023/03/11 11:39:01;;;;;;;1.37;0.70;;;4.50;76.10;;;;;;4990373;28;20575;-66
2023/03/11 11:41:30;;;;;;;2.90;0.80;;;4.60;76.80;;;;;;4990659;28;20439;-66
2023/03/11 11:44:01;;;;;;;1.30;0.50;;;4.50;80.40;;;;;;4989603;28;20477;-66
2023/03/11 11:46:38;;;;;;;1.40;0.60;;;4.70;76.70;;;;;;4990709;28;20433;-66
2023/03/11 11:49:24;;;;;;;1.60;0.60;;;4.70;77.70;;;;;;4990031;28;20441;-65
2023/03/11 11:52:22;;;;;;;2.10;0.90;;;4.80;78.90;;;;;;4989818;28;20473;-66
2023/03/11 11:54:55;;;;;;;3.10;0.97;;;4.90;77.10;;;;;;4939571;28;20513;-66
2023/03/11 11:57:23;;;;;;;1.90;0.60;;;4.80;75.40;;;;;;4989506;28;20419;-66
2023/03/11 11:59:48;;;;;;;4.03;0.50;;;4.60;77.10;;;;;;4990651;28;20431;-66
2023/03/11 12:02:40;;;;;;;1.50;0.77;;;4.40;77.90;;;;;;4990690;28;20533;-66
2023/03/11 12:05:11;;;;;;;1.80;0.70;;;4.30;78.60;;;;;;4979250;28;20211;-66
2023/03/11 12:08:04;;;;;;;4.53;1.13;;;4.10;80.80;;;;;;4994539;28;20505;-66
2023/03/11 12:10:47;;;;;;;1.70;0.60;;;4.10;80.90;;;;;;4983150;28;20430;-66
2023/03/11 12:13:31;;;;;;;10.50;0.60;;;4.60;82.50;;;;;;4989116;28;20959;-66
2023/03/11 12:16:12;;;;;;;2.40;0.80;;;5.00;79.00;;;;;;4990713;28;20880;-66
2023/03/11 12:19:02;;;;;;;4.13;0.80;;;5.30;76.80;;;;;;4990026;28;20423;-66
2023/03/11 12:21:56;;;;;;;1.50;0.60;;;5.10;75.90;;;;;;4989633;28;20450;-66
2023/03/11 12:24:59;;;;;;;1.30;0.50;;;4.90;76.10;;;;;;4989609;28;20415;-65
2023/03/11 12:27:30;;;;;;;2.70;0.83;;;5.00;76.10;;;;;;4964657;28;20800;-65
2023/03/11 12:30:01;;;;;;;1.60;0.80;;;5.20;78.70;;;;;;4993100;28;20509;-65
2023/03/11 12:32:37;;;;;;;6.93;0.70;;;5.60;75.00;;;;;;4987689;28;20469;-65
2023/03/11 12:35:18;;;;;;;1.63;0.80;;;5.80;72.90;;;;;;4993414;28;20525;-66
2023/03/11 12:37:44;;;;;;;1.50;0.80;;;5.70;73.90;;;;;;4993528;28;20501;-65
2023/03/11 12:40:37;;;;;;;2.27;0.63;;;5.60;75.90;;;;;;4993116;28;20542;-65
2023/03/11 12:43:03;;;;;;;3.53;0.77;;;5.80;71.70;;;;;;4991907;28;20239;-65
2023/03/11 12:45:51;;;;;;;1.40;0.60;;;5.80;74.80;;;;;;4992446;28;20931;-65
2023/03/11 12:48:28;;;;;;;2.10;1.00;;;6.00;70.50;;;;;;4991979;28;20188;-68
2023/03/11 12:50:56;;;;;;;2.17;0.80;;;5.90;69.70;;;;;;4992903;28;20896;-68
2023/03/11 12:53:40;;;;;;;1.87;0.70;;;5.90;71.00;;;;;;4991829;28;20958;-66
2023/03/11 12:56:17;;;;;;;1.10;0.40;;;5.90;71.40;;;;;;4992897;28;21039;-65
2023/03/11 12:59:01;;;;;;;4.03;1.20;;;6.20;69.90;;;;;;4992692;28;20426;-65
2023/03/11 13:02:04;;;;;;;2.00;0.60;;;6.40;69.70;;;;;;4985698;28;20430;-65
2023/03/11 13:04:53;;;;;;;1.60;0.80;;;6.50;72.60;;;;;;4966528;28;20907;-66
2023/03/11 13:07:22;;;;;;;2.80;0.60;;;6.60;75.50;;;;;;4985434;28;20891;-67